Time;durP1;ratioP1;P1;durP2;ratioP2;P2;SDS_P1;SDS_P2;PMS_P1;PMS_P2;Temp;Humidity;BMP_temperature;BMP_pressure;BME280_temperature;BME280_humidity;BME280_pressure;Samples;Min_cycle;Max_cycle;Signal;HPM_P1;HPM_P2
2022/09/17 00:01:00;;;;;;;2.88;2.67;;;24.60;67.80;;;;;;5105344;28;20048;-56
2022/09/17 00:03:27;;;;;;;3.10;2.90;;;24.60;67.70;;;;;;5104861;28;20028;-55
2022/09/17 00:06:00;;;;;;;2.92;2.72;;;24.50;67.70;;;;;;5104815;28;20035;-55
2022/09/17 00:08:26;;;;;;;3.00;2.80;;;24.50;67.70;;;;;;5105021;28;20036;-54
2022/09/17 00:10:52;;;;;;;3.47;3.17;;;24.60;67.70;;;;;;5105386;28;20036;-56
2022/09/17 00:13:18;;;;;;;3.45;3.17;;;24.60;67.70;;;;;;5099149;28;20035;-55
2022/09/17 00:15:45;;;;;;;2.67;2.47;;;24.60;67.80;;;;;;5084818;28;20560;-56
2022/09/17 00:18:12;;;;;;;3.00;2.80;;;24.60;67.70;;;;;;5084650;28;20039;-55
2022/09/17 00:20:42;;;;;;;2.83;2.63;;;24.60;67.60;;;;;;5084875;28;20048;-54
2022/09/17 00:23:09;;;;;;;2.90;2.70;;;24.50;67.50;;;;;;5084529;28;20028;-56
2022/09/17 00:25:39;;;;;;;2.90;2.70;;;24.60;67.60;;;;;;5096957;28;20039;-55
2022/09/17 00:28:05;;;;;;;2.97;2.70;;;24.60;67.60;;;;;;5104804;28;20104;-55
2022/09/17 00:30:31;;;;;;;3.05;2.78;;;24.60;67.60;;;;;;5104938;28;20086;-56
2022/09/17 00:32:58;;;;;;;2.92;2.72;;;24.60;67.60;;;;;;5104175;28;20052;-54
2022/09/17 00:35:25;;;;;;;2.88;2.67;;;24.60;67.60;;;;;;5104781;28;20452;-54
2022/09/17 00:38:11;;;;;;;3.15;2.95;;;24.60;67.60;;;;;;5102386;28;20043;-57
2022/09/17 00:40:37;;;;;;;3.50;3.20;;;24.60;67.70;;;;;;5023944;28;20199;-54
2022/09/17 00:43:03;;;;;;;3.43;3.13;;;24.60;67.70;;;;;;5028512;28;20048;-54
2022/09/17 00:45:31;;;;;;;3.72;2.97;;;24.50;67.70;;;;;;5022179;28;20128;-58
2022/09/17 00:47:58;;;;;;;3.10;2.88;;;24.60;67.20;;;;;;5036029;28;20046;-59
2022/09/17 00:50:30;;;;;;;4.07;3.28;;;24.50;66.20;;;;;;5029579;28;20040;-57
2022/09/17 00:53:01;;;;;;;2.95;2.75;;;24.50;65.40;;;;;;5041256;28;20177;-58
2022/09/17 00:55:32;;;;;;;3.17;2.88;;;24.50;64.70;;;;;;5013592;28;20026;-57
2022/09/17 00:58:00;;;;;;;3.38;3.08;;;24.50;64.20;;;;;;5010466;28;20057;-56
2022/09/17 01:00:27;;;;;;;2.70;2.50;;;24.50;63.70;;;;;;5021066;28;20036;-57
2022/09/17 01:02:53;;;;;;;2.72;2.53;;;24.50;63.30;;;;;;5021015;28;20061;-56
2022/09/17 01:05:31;;;;;;;2.67;2.47;;;24.40;62.90;;;;;;5025695;28;20034;-58
2022/09/17 01:08:24;;;;;;;2.97;2.78;;;24.40;62.40;;;;;;5013569;28;20545;-58
2022/09/17 01:11:09;;;;;;;3.13;2.85;;;24.40;62.80;;;;;;5004763;28;20206;-57
2022/09/17 01:14:07;;;;;;;2.25;2.10;;;24.30;61.60;;;;;;5020399;28;20037;-58
2022/09/17 01:17:04;;;;;;;2.67;2.47;;;24.30;61.30;;;;;;5021369;28;20127;-55
2022/09/17 01:19:40;;;;;;;2.45;2.25;;;24.30;60.90;;;;;;5087965;28;20032;-57
2022/09/17 01:22:25;;;;;;;2.55;2.35;;;24.20;60.70;;;;;;5085691;28;20024;-46
2022/09/17 01:25:21;;;;;;;2.50;2.30;;;24.20;60.60;;;;;;5086385;28;20043;-40
2022/09/17 01:27:54;;;;;;;2.47;2.28;;;24.10;60.30;;;;;;5085745;28;20024;-55
2022/09/17 01:30:38;;;;;;;2.30;2.05;;;24.10;60.10;;;;;;5085574;28;20024;-55
2022/09/17 01:33:12;;;;;;;2.33;2.13;;;24.00;59.90;;;;;;5099841;28;20044;-52
2022/09/17 01:36:13;;;;;;;2.70;2.40;;;24.00;60.20;;;;;;5085363;28;20406;-49
2022/09/17 01:38:42;;;;;;;2.53;2.33;;;24.00;60.00;;;;;;5071505;28;20116;-55
2022/09/17 01:41:30;;;;;;;2.85;2.40;;;23.90;60.50;;;;;;5090702;28;20032;-53
2022/09/17 01:44:13;;;;;;;2.70;2.30;;;23.90;60.60;;;;;;5069344;28;20111;-53
2022/09/17 01:46:48;;;;;;;4.32;2.70;;;23.80;60.50;;;;;;5081563;28;20082;-52
2022/09/17 01:49:15;;;;;;;2.90;2.30;;;23.80;60.50;;;;;;5076541;28;20048;-52
2022/09/17 01:51:44;;;;;;;2.53;2.33;;;23.80;60.60;;;;;;5076911;28;20021;-54
2022/09/17 01:54:21;;;;;;;2.60;2.20;;;23.70;60.50;;;;;;5063101;28;20029;-50
2022/09/17 01:57:09;;;;;;;2.70;2.25;;;23.70;60.30;;;;;;5067900;28;20040;-53
2022/09/17 02:00:03;;;;;;;3.65;2.35;;;23.70;60.10;;;;;;5084480;28;20035;-53
2022/09/17 02:02:35;;;;;;;3.38;2.20;;;23.60;59.80;;;;;;5057245;28;20036;-51
2022/09/17 02:05:17;;;;;;;2.63;2.30;;;23.60;60.60;;;;;;5060188;28;20025;-55
2022/09/17 02:08:17;;;;;;;2.58;2.28;;;23.60;60.70;;;;;;5062684;28;20029;-55
2022/09/17 02:10:55;;;;;;;3.67;2.42;;;23.50;60.80;;;;;;5057278;28;20051;-52
2022/09/17 02:13:24;;;;;;;2.90;2.70;;;23.50;61.00;;;;;;5061765;28;20021;-50
2022/09/17 02:16:06;;;;;;;3.03;2.42;;;23.50;61.00;;;;;;5060417;28;20068;-49
2022/09/17 02:19:08;;;;;;;3.20;2.42;;;23.40;61.20;;;;;;5062327;28;20029;-56
2022/09/17 02:21:45;;;;;;;2.67;2.47;;;23.40;61.50;;;;;;5019663;28;20566;-54
2022/09/17 02:24:45;;;;;;;2.78;2.53;;;23.40;61.40;;;;;;5019957;28;20414;-54
2022/09/17 02:27:29;;;;;;;2.63;2.42;;;23.30;61.30;;;;;;4980060;28;20035;-54
2022/09/17 02:29:55;;;;;;;2.83;2.63;;;23.30;61.00;;;;;;4979809;28;20033;-55
2022/09/17 02:32:21;;;;;;;2.78;2.50;;;23.30;60.70;;;;;;4966566;28;20059;-59
2022/09/17 02:34:47;;;;;;;2.72;2.53;;;23.20;60.70;;;;;;4980572;28;20027;-59
2022/09/17 02:37:13;;;;;;;2.38;2.17;;;23.20;60.50;;;;;;4980405;28;20055;-60
2022/09/17 02:39:40;;;;;;;2.33;2.20;;;23.20;60.40;;;;;;4980442;28;20026;-55
2022/09/17 02:42:38;;;;;;;2.97;2.30;;;23.20;60.20;;;;;;4963787;28;20037;-54
2022/09/17 02:45:39;;;;;;;2.80;2.60;;;23.10;60.00;;;;;;4965994;28;20037;-54
2022/09/17 02:48:24;;;;;;;3.45;2.20;;;23.10;59.60;;;;;;4977893;28;20034;-55
2022/09/17 02:51:16;;;;;;;2.30;2.10;;;23.00;59.50;;;;;;4964810;28;20041;-54
2022/09/17 02:54:01;;;;;;;2.60;2.40;;;23.00;59.40;;;;;;4980345;28;20385;-57
2022/09/17 02:57:00;;;;;;;3.22;2.22;;;22.90;59.20;;;;;;4976661;28;20052;-54
2022/09/17 02:59:41;;;;;;;2.00;1.90;;;22.90;59.20;;;;;;5032683;28;20033;-53
2022/09/17 03:02:24;;;;;;;1.98;1.88;;;22.90;59.30;;;;;;5037924;28;20031;-54
2022/09/17 03:04:50;;;;;;;2.20;2.00;;;22.80;59.40;;;;;;5061006;28;20109;-55
2022/09/17 03:07:18;;;;;;;2.00;1.80;;;22.80;59.40;;;;;;5074475;28;20776;-55
2022/09/17 03:09:44;;;;;;;1.92;1.80;;;22.80;59.40;;;;;;5082552;28;20051;-55
2022/09/17 03:12:10;;;;;;;2.22;1.98;;;22.70;59.20;;;;;;5081407;28;20096;-53
2022/09/17 03:14:36;;;;;;;2.20;2.10;;;22.70;59.20;;;;;;5080235;28;20683;-54
2022/09/17 03:17:03;;;;;;;2.65;2.20;;;22.60;59.10;;;;;;5091711;28;20111;-53
2022/09/17 03:19:29;;;;;;;2.77;2.03;;;22.60;59.10;;;;;;5090800;28;20027;-52
2022/09/17 03:21:55;;;;;;;2.28;2.10;;;22.60;59.20;;;;;;5081363;28;20281;-53
2022/09/17 03:24:21;;;;;;;2.40;2.20;;;22.60;59.10;;;;;;5081623;28;20021;-54
2022/09/17 03:26:48;;;;;;;2.58;2.38;;;22.50;59.10;;;;;;5081621;28;20082;-54
2022/09/17 03:29:14;;;;;;;2.42;2.22;;;22.50;59.10;;;;;;5075926;28;20048;-56
2022/09/17 03:31:40;;;;;;;2.28;2.08;;;22.40;59.00;;;;;;5097699;28;20055;-54
2022/09/17 03:34:06;;;;;;;2.10;1.88;;;22.40;59.00;;;;;;5114213;28;20486;-55
2022/09/17 03:36:33;;;;;;;2.45;2.15;;;22.40;59.00;;;;;;5111150;28;20040;-55
2022/09/17 03:38:59;;;;;;;2.17;2.00;;;22.40;59.00;;;;;;5093806;28;20028;-55
2022/09/17 03:41:25;;;;;;;2.25;2.05;;;22.30;59.00;;;;;;5091758;28;20738;-56
2022/09/17 03:43:51;;;;;;;2.20;2.00;;;22.30;58.90;;;;;;5085087;28;20044;-55
2022/09/17 03:46:19;;;;;;;2.08;1.90;;;22.20;58.90;;;;;;5094765;28;20024;-55
2022/09/17 03:48:45;;;;;;;;;;;22.20;59.00;;;;;;5111533;28;20040;-57
2022/09/17 03:51:11;;;;;;;2.00;1.90;;;22.20;59.10;;;;;;5101577;28;20477;-52
2022/09/17 03:53:37;;;;;;;2.50;2.30;;;22.10;58.90;;;;;;5102566;28;20036;-55
2022/09/17 03:56:04;;;;;;;2.43;2.23;;;22.10;59.10;;;;;;5103409;28;20036;-57
2022/09/17 03:58:51;;;;;;;2.10;2.00;;;22.00;59.10;;;;;;5102935;28;20408;-55
2022/09/17 04:01:17;;;;;;;1.98;1.75;;;22.00;59.20;;;;;;5008747;28;20050;-55
2022/09/17 04:03:44;;;;;;;2.40;2.20;;;22.00;59.20;;;;;;5019769;28;20033;-55
2022/09/17 04:06:10;;;;;;;2.30;2.10;;;21.90;59.30;;;;;;5013305;28;20050;-57
2022/09/17 04:08:36;;;;;;;2.00;1.90;;;21.90;59.40;;;;;;5022536;28;20018;-57
2022/09/17 04:11:03;;;;;;;2.40;2.20;;;21.90;59.60;;;;;;5019287;28;20818;-55
2022/09/17 04:13:29;;;;;;;2.17;1.98;;;21.80;59.80;;;;;;5019490;28;20044;-56
2022/09/17 04:15:55;;;;;;;2.30;2.10;;;21.80;60.10;;;;;;4998998;28;20041;-57
2022/09/17 04:18:21;;;;;;;2.33;2.13;;;21.80;60.40;;;;;;5016231;28;20056;-56
2022/09/17 04:20:47;;;;;;;2.03;1.90;;;21.80;61.00;;;;;;5006649;28;20651;-57
2022/09/17 04:23:13;;;;;;;2.42;2.22;;;21.80;61.60;;;;;;5017568;28;20030;-57
2022/09/17 04:25:39;;;;;;;2.30;2.10;;;21.70;61.70;;;;;;5020720;28;20129;-57
2022/09/17 04:28:06;;;;;;;2.90;2.30;;;21.70;62.00;;;;;;5019855;28;20030;-56
2022/09/17 04:30:32;;;;;;;2.35;2.15;;;21.70;62.30;;;;;;5011437;28;20057;-56
2022/09/17 04:32:58;;;;;;;2.22;2.08;;;21.70;62.40;;;;;;5029478;28;20959;-57
2022/09/17 04:35:24;;;;;;;2.30;2.08;;;21.70;62.60;;;;;;5040677;28;20029;-56
2022/09/17 04:37:54;;;;;;;2.40;2.20;;;21.70;62.70;;;;;;5061726;28;20052;-58
2022/09/17 04:40:21;;;;;;;2.42;2.22;;;21.70;62.90;;;;;;5102504;28;20055;-55
2022/09/17 04:42:48;;;;;;;2.15;1.95;;;21.70;63.00;;;;;;5100526;28;20036;-56
2022/09/17 04:45:14;;;;;;;2.45;2.25;;;21.70;63.10;;;;;;5102001;28;20034;-58
2022/09/17 04:47:40;;;;;;;2.80;2.25;;;21.70;63.30;;;;;;5104509;28;20035;-57
2022/09/17 04:50:07;;;;;;;2.53;2.33;;;21.70;63.50;;;;;;5102027;28;20028;-56
2022/09/17 04:52:33;;;;;;;2.45;2.25;;;21.60;63.50;;;;;;5099899;28;20031;-50
2022/09/17 04:54:59;;;;;;;2.70;2.50;;;21.60;63.70;;;;;;5102519;28;20032;-56
2022/09/17 04:57:26;;;;;;;2.53;2.33;;;21.60;63.90;;;;;;5102407;28;20147;-52
2022/09/17 04:59:52;;;;;;;2.45;2.25;;;21.60;64.00;;;;;;5102454;28;20111;-56
2022/09/17 05:02:18;;;;;;;2.92;2.40;;;21.60;64.20;;;;;;5101036;28;20041;-56
2022/09/17 05:04:44;;;;;;;2.78;2.55;;;21.60;64.40;;;;;;5102263;28;20094;-51
2022/09/17 05:07:11;;;;;;;2.47;2.28;;;21.60;64.50;;;;;;5102249;28;20035;-55
2022/09/17 05:09:37;;;;;;;2.53;2.33;;;21.60;64.60;;;;;;5101870;28;20028;-56
2022/09/17 05:12:03;;;;;;;2.83;2.63;;;21.60;64.70;;;;;;5100742;28;20024;-56
2022/09/17 05:14:29;;;;;;;2.70;2.50;;;21.60;64.90;;;;;;5100215;28;20039;-57
2022/09/17 05:16:55;;;;;;;2.30;2.10;;;21.60;64.90;;;;;;5104887;28;20050;-57
2022/09/17 05:19:21;;;;;;;2.83;2.63;;;21.60;64.90;;;;;;5101387;28;21115;-56
2022/09/17 05:21:48;;;;;;;3.00;2.80;;;21.60;64.90;;;;;;5101855;28;20024;-57
2022/09/17 05:24:14;;;;;;;2.60;2.40;;;21.60;65.00;;;;;;5103382;28;20051;-54
2022/09/17 05:26:40;;;;;;;3.00;2.63;;;21.60;65.10;;;;;;5101588;28;20024;-55
2022/09/17 05:29:06;;;;;;;2.80;2.60;;;21.60;65.10;;;;;;5101107;28;20058;-55
2022/09/17 05:31:32;;;;;;;2.85;2.60;;;21.60;65.10;;;;;;5096355;28;20049;-55
2022/09/17 05:33:58;;;;;;;2.70;2.50;;;21.60;65.10;;;;;;5084640;28;20028;-56
2022/09/17 05:36:24;;;;;;;2.92;2.72;;;21.60;65.00;;;;;;5089575;28;20041;-56
2022/09/17 05:38:50;;;;;;;3.83;2.70;;;21.60;65.10;;;;;;5080347;28;20088;-55
2022/09/17 05:41:16;;;;;;;3.13;2.90;;;21.60;65.10;;;;;;5077681;28;20485;-57
2022/09/17 05:43:43;;;;;;;2.65;2.45;;;21.60;65.10;;;;;;5082966;28;20047;-57
2022/09/17 05:46:09;;;;;;;3.10;2.80;;;21.60;65.10;;;;;;5082427;28;20103;-59
2022/09/17 05:48:36;;;;;;;2.85;2.65;;;21.60;65.30;;;;;;5086095;28;20029;-58
2022/09/17 05:51:02;;;;;;;2.97;2.70;;;21.60;65.50;;;;;;5088417;28;20793;-57
2022/09/17 05:53:28;;;;;;;2.92;2.72;;;21.60;65.60;;;;;;5088036;28;20099;-53
2022/09/17 05:56:00;;;;;;;3.08;2.78;;;21.60;65.70;;;;;;5082336;28;20036;-58
2022/09/17 05:58:26;;;;;;;2.80;2.60;;;21.60;65.70;;;;;;5084512;28;20032;-58
2022/09/17 06:00:52;;;;;;;3.13;2.83;;;21.50;65.50;;;;;;5082658;28;20036;-59
2022/09/17 06:03:19;;;;;;;3.13;2.83;;;21.60;65.60;;;;;;5082248;28;20092;-58
2022/09/17 06:05:57;;;;;;;2.88;2.65;;;21.60;65.50;;;;;;5083169;28;20024;-57
2022/09/17 06:08:23;;;;;;;2.85;2.65;;;21.60;65.50;;;;;;5086660;28;20032;-55
2022/09/17 06:10:49;;;;;;;3.20;2.90;;;21.60;65.50;;;;;;5084975;28;20554;-56
2022/09/17 06:13:18;;;;;;;3.17;2.90;;;21.60;65.70;;;;;;5082933;28;20042;-58
2022/09/17 06:15:52;;;;;;;3.70;3.17;;;21.60;65.80;;;;;;5082364;28;20024;-58
2022/09/17 06:18:18;;;;;;;3.58;2.85;;;21.60;66.10;;;;;;5087135;28;20095;-56
2022/09/17 06:21:01;;;;;;;3.05;2.85;;;21.60;66.10;;;;;;5085805;28;20029;-55
2022/09/17 06:23:27;;;;;;;3.33;3.03;;;21.60;66.20;;;;;;5085761;28;20500;-58
2022/09/17 06:25:57;;;;;;;2.80;2.60;;;21.60;66.10;;;;;;5066374;28;20032;-57
2022/09/17 06:28:24;;;;;;;3.30;3.00;;;21.60;66.10;;;;;;5085642;28;20036;-58
2022/09/17 06:30:53;;;;;;;3.15;2.85;;;21.60;66.20;;;;;;5085786;28;20063;-57
2022/09/17 06:33:22;;;;;;;3.78;3.45;;;21.60;66.20;;;;;;5102231;28;20031;-58
2022/09/17 06:35:54;;;;;;;3.42;3.13;;;21.60;66.30;;;;;;5098384;28;20109;-57
2022/09/17 06:38:20;;;;;;;3.20;2.90;;;21.60;66.20;;;;;;5102448;28;20103;-56
2022/09/17 06:40:51;;;;;;;3.45;3.13;;;21.60;66.20;;;;;;5107783;28;20023;-56
2022/09/17 06:43:17;;;;;;;2.90;2.70;;;21.60;66.20;;;;;;5115445;28;20028;-56
2022/09/17 06:45:43;;;;;;;3.40;3.10;;;21.60;66.10;;;;;;5102967;28;20028;-58
2022/09/17 06:48:09;;;;;;;3.40;3.10;;;21.60;66.10;;;;;;5118722;28;20272;-54
2022/09/17 06:50:35;;;;;;;3.47;3.17;;;21.60;66.30;;;;;;5102887;28;20036;-57
2022/09/17 06:53:01;;;;;;;3.10;2.90;;;21.60;66.10;;;;;;5097926;28;20033;-57
2022/09/17 06:55:28;;;;;;;3.67;3.00;;;21.60;66.10;;;;;;5093729;28;20043;-58
2022/09/17 06:57:57;;;;;;;3.33;3.03;;;21.60;66.20;;;;;;5107480;28;20100;-55
2022/09/17 07:00:23;;;;;;;3.22;2.95;;;21.60;66.10;;;;;;5093604;28;20036;-58
2022/09/17 07:02:59;;;;;;;3.58;3.25;;;21.60;66.10;;;;;;5101435;28;20060;-56
2022/09/17 07:05:26;;;;;;;3.53;3.20;;;21.60;66.30;;;;;;5102462;28;20081;-55
2022/09/17 07:07:52;;;;;;;3.95;3.63;;;21.60;66.50;;;;;;5094459;28;20035;-55
2022/09/17 07:10:19;;;;;;;3.67;3.37;;;21.60;66.50;;;;;;5086660;28;20028;-56
2022/09/17 07:12:45;;;;;;;3.22;2.92;;;21.60;66.60;;;;;;5100209;28;20420;-56
2022/09/17 07:15:12;;;;;;;3.80;3.50;;;21.60;66.70;;;;;;5100137;28;20043;-57
2022/09/17 07:17:39;;;;;;;;;;;21.60;66.70;;;;;;5092266;28;20036;-57
2022/09/17 07:20:07;;;;;;;3.55;3.25;;;21.60;66.70;;;;;;5106100;28;19904;-55
2022/09/17 07:22:33;;;;;;;3.30;3.00;;;21.60;66.80;;;;;;5105324;28;20082;-55
2022/09/17 07:24:59;;;;;;;3.30;3.00;;;21.60;66.90;;;;;;5106064;28;20047;-55
2022/09/17 07:27:29;;;;;;;3.10;2.90;;;21.60;66.90;;;;;;5105872;28;20523;-58
2022/09/17 07:29:55;;;;;;;3.85;3.50;;;21.60;66.90;;;;;;5105858;28;20051;-58
2022/09/17 07:32:21;;;;;;;3.90;3.35;;;21.60;66.80;;;;;;5105734;28;20048;-56
2022/09/17 07:34:51;;;;;;;3.77;3.47;;;21.60;66.80;;;;;;5107746;28;20039;-55
2022/09/17 07:37:17;;;;;;;2.95;2.70;;;21.60;66.80;;;;;;5107444;28;20379;-57
2022/09/17 07:39:43;;;;;;;3.33;3.03;;;21.60;66.80;;;;;;5126106;28;20030;-57
2022/09/17 07:42:09;;;;;;;3.85;3.45;;;21.60;66.80;;;;;;5105724;28;20071;-57
2022/09/17 07:44:36;;;;;;;3.95;3.50;;;21.60;66.80;;;;;;5088764;28;20033;-57
2022/09/17 07:47:02;;;;;;;3.35;3.05;;;21.60;66.70;;;;;;5096981;28;20036;-54
2022/09/17 07:49:29;;;;;;;3.80;3.20;;;21.60;66.60;;;;;;5111292;28;20080;-58
2022/09/17 07:51:56;;;;;;;3.40;3.15;;;21.60;66.60;;;;;;5126082;28;20035;-57
2022/09/17 07:54:22;;;;;;;3.67;3.37;;;21.60;66.60;;;;;;5110496;28;20032;-57
2022/09/17 07:56:49;;;;;;;3.47;3.17;;;21.60;66.60;;;;;;5099121;28;20020;-55
2022/09/17 07:59:15;;;;;;;3.40;3.10;;;21.60;67.30;;;;;;5084954;28;20556;-57
2022/09/17 08:01:41;;;;;;;4.10;3.22;;;21.60;66.50;;;;;;5100039;28;20032;-58
2022/09/17 08:04:07;;;;;;;3.90;3.50;;;21.60;66.60;;;;;;5125683;28;20039;-57
2022/09/17 08:06:36;;;;;;;3.45;3.15;;;21.60;66.70;;;;;;5124593;28;20808;-56
2022/09/17 08:09:02;;;;;;;3.88;3.30;;;21.60;66.70;;;;;;5125507;28;20117;-57
2022/09/17 08:11:29;;;;;;;3.63;3.33;;;21.60;66.60;;;;;;5093012;28;20081;-56
2022/09/17 08:13:55;;;;;;;3.80;3.45;;;21.60;66.50;;;;;;5075449;28;20118;-57
2022/09/17 08:16:22;;;;;;;3.40;3.15;;;21.60;66.60;;;;;;5090937;28;20621;-57
2022/09/17 08:18:48;;;;;;;3.53;3.22;;;21.60;66.60;;;;;;5105464;28;20027;-55
2022/09/17 08:21:16;;;;;;;4.22;3.33;;;21.60;66.70;;;;;;5107488;28;20032;-55
2022/09/17 08:23:43;;;;;;;4.20;3.70;;;21.60;66.90;;;;;;5102198;28;20025;-56
2022/09/17 08:26:17;;;;;;;3.75;3.45;;;21.60;66.90;;;;;;5105006;28;20027;-52
2022/09/17 08:28:47;;;;;;;3.70;3.40;;;21.60;67.00;;;;;;5085737;28;20028;-54
2022/09/17 08:31:14;;;;;;;4.75;3.58;;;21.60;66.90;;;;;;5103319;28;20048;-54
2022/09/17 08:33:40;;;;;;;4.70;3.45;;;21.60;67.10;;;;;;5083745;28;20047;-53
2022/09/17 08:36:07;;;;;;;3.90;3.60;;;21.60;67.10;;;;;;5084592;28;20036;-55
2022/09/17 08:38:38;;;;;;;4.20;3.90;;;21.60;67.20;;;;;;5084487;28;20039;-56
2022/09/17 08:41:11;;;;;;;4.35;3.67;;;21.60;67.30;;;;;;5089048;28;20032;-51
2022/09/17 08:43:49;;;;;;;3.72;3.42;;;21.60;67.40;;;;;;5076410;28;20037;-55
2022/09/17 08:46:15;;;;;;;5.43;3.67;;;21.50;67.30;;;;;;5068690;28;20032;-56
2022/09/17 08:48:53;;;;;;;4.30;3.88;;;21.60;67.50;;;;;;5084428;28;20033;-57
2022/09/17 08:51:25;;;;;;;;;;;21.50;67.50;;;;;;5066293;28;20111;-58
2022/09/17 08:54:02;;;;;;;4.70;4.03;;;21.50;67.30;;;;;;5083809;28;19909;-56
2022/09/17 08:56:29;;;;;;;4.25;3.40;;;21.60;67.40;;;;;;5066539;28;20071;-58
2022/09/17 08:59:05;;;;;;;3.70;3.40;;;21.50;67.30;;;;;;5066366;28;20036;-57
2022/09/17 09:01:43;;;;;;;4.32;3.97;;;21.50;67.20;;;;;;5056282;28;20032;-57
2022/09/17 09:04:14;;;;;;;3.90;3.60;;;21.60;67.40;;;;;;5104367;28;20020;-58
2022/09/17 09:06:54;;;;;;;3.90;3.58;;;21.50;67.30;;;;;;5103556;28;20039;-60
2022/09/17 09:09:22;;;;;;;4.25;3.58;;;21.50;67.50;;;;;;5068609;28;20028;-58
2022/09/17 09:11:49;;;;;;;5.68;3.85;;;21.60;68.30;;;;;;5068731;28;20021;-56
2022/09/17 09:14:22;;;;;;;4.15;3.75;;;21.60;67.70;;;;;;5057235;28;20028;-58
2022/09/17 09:16:48;;;;;;;4.18;3.88;;;21.60;67.80;;;;;;5085422;28;20040;-58
2022/09/17 09:19:25;;;;;;;3.95;3.65;;;21.60;67.80;;;;;;5086500;28;20035;-57
2022/09/17 09:22:03;;;;;;;4.22;3.58;;;21.50;67.80;;;;;;5083207;28;20120;-57
2022/09/17 09:24:40;;;;;;;4.80;4.00;;;21.50;67.80;;;;;;5066270;28;20036;-57
2022/09/17 09:27:27;;;;;;;4.22;3.83;;;21.50;67.60;;;;;;5068982;28;20029;-56
2022/09/17 09:30:08;;;;;;;3.83;3.53;;;21.50;67.40;;;;;;5083381;28;20043;-56
2022/09/17 09:32:57;;;;;;;3.90;3.60;;;21.50;67.40;;;;;;5063759;28;20052;-56
2022/09/17 09:35:28;;;;;;;3.80;3.50;;;21.50;67.60;;;;;;5083151;28;20032;-55
2022/09/17 09:38:13;;;;;;;3.65;3.35;;;21.50;67.60;;;;;;5082648;28;20048;-55
2022/09/17 09:40:51;;;;;;;4.00;3.70;;;21.50;67.50;;;;;;5083827;28;20033;-57
2022/09/17 09:43:20;;;;;;;4.15;3.80;;;21.50;67.40;;;;;;5082699;28;20024;-56
2022/09/17 09:46:02;;;;;;;4.18;3.80;;;21.50;67.30;;;;;;5087325;28;20063;-56
2022/09/17 09:49:03;;;;;;;4.03;3.72;;;21.50;67.30;;;;;;5080043;28;20040;-55
2022/09/17 09:51:57;;;;;;;3.95;3.65;;;21.50;67.70;;;;;;5067303;28;20040;-57
2022/09/17 09:54:53;;;;;;;3.67;3.38;;;21.50;67.80;;;;;;5047592;28;20048;-54
2022/09/17 09:57:36;;;;;;;4.40;4.03;;;21.50;68.00;;;;;;5065305;28;20036;-54
2022/09/17 10:00:21;;;;;;;4.38;3.78;;;21.50;68.10;;;;;;5048221;28;20036;-57
2022/09/17 10:02:47;;;;;;;3.90;3.60;;;21.50;68.00;;;;;;5080471;28;20020;-56
2022/09/17 10:05:13;;;;;;;3.97;3.60;;;21.50;67.80;;;;;;5065342;28;20021;-54
2022/09/17 10:07:44;;;;;;;3.05;2.80;;;21.50;67.80;;;;;;5085705;28;20265;-57
2022/09/17 10:10:10;;;;;;;4.43;3.80;;;21.50;67.70;;;;;;5051737;28;20032;-56
2022/09/17 10:12:37;;;;;;;4.43;4.03;;;21.50;67.70;;;;;;5081910;28;20503;-56
2022/09/17 10:15:32;;;;;;;4.05;3.60;;;21.50;67.60;;;;;;5084457;28;20028;-56
2022/09/17 10:18:30;;;;;;;3.97;3.60;;;21.50;67.80;;;;;;5019803;28;20089;-57
2022/09/17 10:20:58;;;;;;;4.43;4.05;;;21.50;67.90;;;;;;4981747;28;20030;-56
2022/09/17 10:23:25;;;;;;;3.92;3.63;;;21.50;67.90;;;;;;4986325;28;20053;-56
2022/09/17 10:25:54;;;;;;;4.32;3.92;;;21.50;67.90;;;;;;4991031;28;20075;-57
2022/09/17 10:28:30;;;;;;;4.25;3.83;;;21.50;68.70;;;;;;4986922;28;20059;-56
2022/09/17 10:31:07;;;;;;;4.88;3.58;;;21.50;68.10;;;;;;4984413;28;20047;-57
2022/09/17 10:33:35;;;;;;;4.50;4.10;;;21.50;68.00;;;;;;4981171;28;20393;-55
2022/09/17 10:36:05;;;;;;;3.95;3.65;;;21.50;68.00;;;;;;4982768;28;20078;-58
2022/09/17 10:38:33;;;;;;;4.30;3.90;;;21.50;68.10;;;;;;4981693;28;20039;-58
2022/09/17 10:41:20;;;;;;;3.90;3.60;;;21.50;68.00;;;;;;4981182;28;20039;-53
2022/09/17 10:43:47;;;;;;;3.90;3.60;;;21.50;68.10;;;;;;4984749;28;20042;-58
2022/09/17 10:46:18;;;;;;;4.13;3.72;;;21.50;68.00;;;;;;4981532;28;20045;-53
2022/09/17 10:48:57;;;;;;;3.83;3.53;;;21.50;68.00;;;;;;4984011;28;20426;-55
2022/09/17 10:51:23;;;;;;;3.80;3.50;;;21.40;67.90;;;;;;4985954;28;20041;-58
2022/09/17 10:54:20;;;;;;;4.15;3.75;;;21.50;68.00;;;;;;4984770;28;20060;-55
2022/09/17 10:57:04;;;;;;;4.10;3.80;;;21.40;67.90;;;;;;5063921;28;20036;-56
2022/09/17 11:00:08;;;;;;;3.80;3.50;;;21.50;68.00;;;;;;5096924;28;20016;-55
2022/09/17 11:02:55;;;;;;;4.20;3.80;;;21.40;67.80;;;;;;5014781;28;20049;-57
2022/09/17 11:05:47;;;;;;;3.97;3.67;;;21.40;67.90;;;;;;5018317;28;20041;-55
2022/09/17 11:08:28;;;;;;;4.20;3.80;;;21.40;67.90;;;;;;5019799;28;20131;-56
2022/09/17 11:11:00;;;;;;;3.75;3.45;;;21.40;67.80;;;;;;5027851;28;20022;-53
2022/09/17 11:13:59;;;;;;;3.67;3.38;;;21.40;67.80;;;;;;5010094;28;20040;-56
2022/09/17 11:16:46;;;;;;;4.30;3.90;;;21.40;67.90;;;;;;5000853;28;20046;-54
2022/09/17 11:19:13;;;;;;;3.75;3.45;;;21.40;68.00;;;;;;5011730;28;20040;-56
2022/09/17 11:22:08;;;;;;;4.43;4.00;;;21.40;68.00;;;;;;5023007;28;20034;-54
2022/09/17 11:24:37;;;;;;;4.13;3.72;;;21.40;68.10;;;;;;5012559;28;20145;-54
2022/09/17 11:27:25;;;;;;;4.18;3.88;;;21.40;68.00;;;;;;5027849;28;20072;-56
2022/09/17 11:30:13;;;;;;;4.28;3.88;;;21.40;68.20;;;;;;5027448;28;20120;-55
2022/09/17 11:32:57;;;;;;;;;;;21.40;68.10;;;;;;5020767;28;20864;-57
2022/09/17 11:35:41;;;;;;;4.05;3.65;;;21.40;68.00;;;;;;5036560;28;19920;-56
2022/09/17 11:38:38;;;;;;;4.53;4.05;;;21.40;68.10;;;;;;5061231;28;20044;-54
2022/09/17 11:41:13;;;;;;;4.30;3.90;;;21.40;68.20;;;;;;5118134;28;20039;-54
2022/09/17 11:43:47;;;;;;;4.13;3.72;;;21.30;68.00;;;;;;5118592;28;20057;-53
2022/09/17 11:46:20;;;;;;;4.00;3.65;;;21.40;68.10;;;;;;5120312;28;20069;-54
2022/09/17 11:48:46;;;;;;;3.70;3.40;;;21.40;68.10;;;;;;5128162;28;20023;-55
2022/09/17 11:51:18;;;;;;;4.18;3.78;;;21.40;68.20;;;;;;5124563;28;20015;-56
2022/09/17 11:53:48;;;;;;;4.43;4.03;;;21.30;68.10;;;;;;5124691;28;20106;-51
2022/09/17 11:56:38;;;;;;;4.35;4.05;;;21.40;68.30;;;;;;5127327;28;20063;-56
2022/09/17 11:59:20;;;;;;;4.20;3.80;;;21.30;68.30;;;;;;5125401;28;20047;-56
2022/09/17 12:01:57;;;;;;;4.10;3.80;;;21.30;68.90;;;;;;5103044;28;20099;-55
2022/09/17 12:04:56;;;;;;;4.25;3.95;;;21.30;68.40;;;;;;5115747;28;20043;-56
2022/09/17 12:07:49;;;;;;;6.28;4.10;;;21.30;68.20;;;;;;5131106;27;20024;-54
2022/09/17 12:10:31;;;;;;;3.78;3.47;;;21.30;68.20;;;;;;5127801;27;20054;-55
2022/09/17 12:13:19;;;;;;;4.28;3.97;;;21.30;68.30;;;;;;5128713;27;20114;-56
2022/09/17 12:15:47;;;;;;;4.72;3.72;;;21.30;68.20;;;;;;5107525;27;20059;-57
2022/09/17 12:18:13;;;;;;;3.92;3.63;;;21.30;68.20;;;;;;5109166;28;20040;-57
2022/09/17 12:20:40;;;;;;;4.45;3.83;;;21.30;68.20;;;;;;5123982;27;20020;-54
2022/09/17 12:23:10;;;;;;;4.15;3.85;;;21.30;68.40;;;;;;5105226;28;20396;-56
2022/09/17 12:26:03;;;;;;;4.68;4.28;;;21.30;68.50;;;;;;5110474;28;20567;-56
2022/09/17 12:29:01;;;;;;;4.28;3.88;;;21.30;68.50;;;;;;5089670;27;20065;-55
2022/09/17 12:31:52;;;;;;;4.30;3.90;;;21.30;68.50;;;;;;5098429;27;20035;-55
2022/09/17 12:34:25;;;;;;;4.45;4.05;;;21.30;68.40;;;;;;5101362;28;20074;-55
2022/09/17 12:37:14;;;;;;;3.72;3.42;;;21.30;68.40;;;;;;5124921;27;20027;-55
2022/09/17 12:39:49;;;;;;;4.30;3.83;;;21.30;68.60;;;;;;5111508;27;20027;-57
2022/09/17 12:42:24;;;;;;;3.97;3.53;;;21.30;68.50;;;;;;5131615;27;20027;-57
2022/09/17 12:44:50;;;;;;;4.38;3.97;;;21.30;68.30;;;;;;5095233;27;20026;-53
2022/09/17 12:47:28;;;;;;;4.03;3.67;;;21.30;68.40;;;;;;5122965;27;20484;-56
2022/09/17 12:50:19;;;;;;;4.88;4.47;;;21.30;68.40;;;;;;5126695;27;20065;-58
2022/09/17 12:53:13;;;;;;;3.90;3.60;;;21.30;68.60;;;;;;5125280;27;20035;-58
2022/09/17 12:55:56;;;;;;;3.70;3.40;;;21.30;68.40;;;;;;5107649;27;20031;-57
2022/09/17 12:58:44;;;;;;;4.07;3.78;;;21.30;69.20;;;;;;5105571;28;20035;-57
2022/09/17 13:01:17;;;;;;;3.95;3.65;;;21.30;68.40;;;;;;5119894;27;20047;-56
2022/09/17 13:03:46;;;;;;;4.55;3.60;;;21.30;68.50;;;;;;5107610;28;20044;-56
2022/09/17 13:07:04;;;;;;;3.92;3.63;;;21.30;68.30;;;;;;5098469;28;20105;-55
2022/09/17 13:09:46;;;;;;;3.70;3.40;;;21.30;68.50;;;;;;5037065;28;20072;-57
2022/09/17 13:12:23;;;;;;;3.70;3.40;;;21.30;68.50;;;;;;5024564;28;20067;-56
2022/09/17 13:15:17;;;;;;;3.92;3.63;;;21.30;68.60;;;;;;5024189;28;20589;-57
2022/09/17 13:17:54;;;;;;;3.97;3.58;;;21.30;68.50;;;;;;5057016;28;20055;-57
2022/09/17 13:20:28;;;;;;;3.92;3.63;;;21.30;68.50;;;;;;5045493;28;20131;-58